Time;durP1;ratioP1;P1;durP2;ratioP2;P2;SDS_P1;SDS_P2;PMS_P1;PMS_P2;Temp;Humidity;BMP_temperature;BMP_pressure;BME280_temperature;BME280_humidity;BME280_pressure;Samples;Min_cycle;Max_cycle;Signal;HPM_P1;HPM_P2
2024/01/27 00:01:02;;;;;;;8.13;3.47;;;;;;;3.41;71.33;100632.25;5067621;28;20105;-77
2024/01/27 00:03:27;;;;;;;8.30;4.22;;;;;;;3.57;70.88;100642.06;5085098;28;20119;-77
2024/01/27 00:05:52;;;;;;;7.60;3.72;;;;;;;3.51;71.25;100632.94;5081107;28;20033;-77
2024/01/27 00:08:18;;;;;;;7.63;3.05;;;;;;;3.61;71.30;100625.75;5067850;28;20086;-78
2024/01/27 00:10:45;;;;;;;6.93;3.20;;;;;;;3.58;71.00;100639.25;5050410;28;20394;-78
2024/01/27 00:13:11;;;;;;;7.85;3.00;;;;;;;3.66;71.09;100638.47;5068279;28;20033;-77
2024/01/27 00:15:36;;;;;;;8.18;3.65;;;;;;;3.54;71.92;100637.94;5069957;28;20132;-77
2024/01/27 00:18:02;;;;;;;6.97;2.65;;;;;;;3.58;71.87;100644.53;5067793;28;20056;-78
2024/01/27 00:20:27;;;;;;;6.85;2.60;;;;;;;3.72;70.11;100635.19;5068117;28;20025;-77
2024/01/27 00:22:54;;;;;;;6.65;2.67;;;;;;;3.72;71.26;100639.63;5067908;28;20055;-77
2024/01/27 00:25:19;;;;;;;8.85;3.10;;;;;;;3.38;71.42;100587.75;5069931;28;20036;-77
2024/01/27 00:27:45;;;;;;;5.18;2.83;;;;;;;3.72;70.33;100627.28;5087579;28;20542;-77
2024/01/27 00:30:11;;;;;;;6.05;3.25;;;;;;;3.93;69.90;100658.50;5069777;28;20029;-78
2024/01/27 00:32:37;;;;;;;8.93;3.22;;;;;;;3.67;71.22;100641.94;5087999;28;20032;-77
2024/01/27 00:35:03;;;;;;;6.40;2.75;;;;;;;3.56;70.88;100635.97;5069609;28;20024;-77
2024/01/27 00:37:28;;;;;;;5.75;2.75;;;;;;;3.67;71.41;100634.00;5093122;28;20039;-77
2024/01/27 00:39:54;;;;;;;7.80;3.40;;;;;;;3.67;70.75;100637.47;5094579;28;20518;-77
2024/01/27 00:42:23;;;;;;;7.95;2.80;;;;;;;3.75;70.47;100636.69;5091729;28;20020;-77
2024/01/27 00:44:50;;;;;;;7.60;3.38;;;;;;;3.79;70.59;100648.56;5074157;28;20490;-77
2024/01/27 00:47:15;;;;;;;5.93;3.08;;;;;;;3.78;70.31;100644.25;5089558;28;20032;-79
2024/01/27 00:49:40;;;;;;;10.10;3.40;;;;;;;3.81;71.07;100659.78;5094522;28;20016;-78
2024/01/27 00:52:06;;;;;;;10.40;4.10;;;;;;;3.75;71.02;100636.69;5093934;28;20020;-78
2024/01/27 00:54:31;;;;;;;11.35;4.57;;;;;;;3.76;70.95;100647.06;5094395;28;20481;-78
2024/01/27 00:56:57;;;;;;;12.32;4.75;;;;;;;3.75;70.92;100634.03;5092680;28;20046;-77
2024/01/27 00:59:22;;;;;;;14.90;5.20;;;;;;;3.70;71.09;100625.75;5076295;28;20120;-77
2024/01/27 01:01:48;;;;;;;11.77;5.22;;;;;;;3.70;70.72;100623.13;5076655;28;20034;-78
2024/01/27 01:04:13;;;;;;;14.13;6.20;;;;;;;3.66;71.00;100616.53;5077217;28;20393;-78
2024/01/27 01:06:40;;;;;;;13.23;5.18;;;;;;;3.80;71.41;100631.72;5077196;28;20036;-78
2024/01/27 01:09:05;;;;;;;12.38;5.25;;;;;;;3.63;70.80;100609.75;5056239;28;20021;-77
2024/01/27 01:11:31;;;;;;;11.30;4.75;;;;;;;3.83;70.55;100626.16;5073784;28;20031;-78
2024/01/27 01:13:56;;;;;;;11.55;4.75;;;;;;;3.67;71.00;100612.91;5074312;28;20024;-78
2024/01/27 01:16:22;;;;;;;10.13;4.30;;;;;;;3.60;70.83;100615.38;5079290;28;20756;-78
2024/01/27 01:18:47;;;;;;;8.93;4.40;;;;;;;3.36;71.97;100614.28;5094768;28;20434;-77
2024/01/27 01:21:13;;;;;;;9.48;4.75;;;;;;;3.38;71.63;100608.84;5093523;28;20073;-78
2024/01/27 01:23:38;;;;;;;13.30;5.38;;;;;;;3.25;72.24;100595.28;5084601;28;20509;-77
2024/01/27 01:26:03;;;;;;;11.77;4.63;;;;;;;3.16;72.55;100587.34;5058017;28;20426;-79
2024/01/27 01:28:29;;;;;;;13.95;5.68;;;;;;;3.31;72.04;100586.72;5074120;28;20033;-78
2024/01/27 01:30:54;;;;;;;11.60;5.47;;;;;;;3.40;71.80;100594.53;5074045;28;20402;-77
2024/01/27 01:33:20;;;;;;;13.10;5.85;;;;;;;3.50;71.56;100594.41;5073312;28;20105;-78
2024/01/27 01:35:45;;;;;;;11.75;4.53;;;;;;;3.51;70.68;100582.84;5055751;28;20115;-78
2024/01/27 01:38:11;;;;;;;11.50;4.15;;;;;;;3.61;70.69;100580.09;5076195;28;20048;-78
2024/01/27 01:40:36;;;;;;;8.68;3.92;;;;;;;3.67;71.21;100589.16;5073806;28;20447;-76
2024/01/27 01:43:04;;;;;;;8.15;3.40;;;;;;;3.57;70.43;100563.75;5073634;28;20035;-77
2024/01/27 01:45:29;;;;;;;8.88;3.55;;;;;;;3.65;70.45;100575.31;5074481;28;20672;-77
2024/01/27 01:47:55;;;;;;;9.10;3.25;;;;;;;3.65;69.72;100572.69;5065297;28;20032;-78
2024/01/27 01:50:21;;;;;;;9.00;3.45;;;;;;;3.69;69.88;100566.91;5090696;28;20103;-77
2024/01/27 01:52:48;;;;;;;7.38;3.33;;;;;;;3.75;70.10;100565.44;5090818;28;20024;-77
2024/01/27 01:55:14;;;;;;;6.35;3.17;;;;;;;3.77;70.48;100576.66;5090761;28;20028;-78
2024/01/27 01:57:40;;;;;;;8.48;3.45;;;;;;;3.80;71.24;100594.78;5087307;28;20039;-78
2024/01/27 02:00:06;;;;;;;8.80;2.90;;;;;;;3.76;70.84;100586.41;5090462;28;20020;-77
2024/01/27 02:02:31;;;;;;;6.88;3.03;;;;;;;3.77;71.08;100588.03;5072768;28;20028;-78
2024/01/27 02:04:57;;;;;;;6.30;2.58;;;;;;;3.87;69.99;100584.44;5074484;28;20031;-78
2024/01/27 02:07:22;;;;;;;6.72;2.88;;;;;;;3.82;70.62;100566.44;5060558;28;20125;-77
2024/01/27 02:09:48;;;;;;;8.32;3.05;;;;;;;3.73;71.60;100559.50;5090592;28;20024;-78
2024/01/27 02:12:13;;;;;;;7.18;2.97;;;;;;;3.42;72.75;100536.38;5072345;28;20038;-77
2024/01/27 02:14:38;;;;;;;6.43;2.97;;;;;;;3.41;72.70;100532.06;5090358;28;20027;-78
2024/01/27 02:17:04;;;;;;;6.32;2.80;;;;;;;3.44;73.04;100557.31;5085971;28;20137;-78
2024/01/27 02:19:30;;;;;;;6.10;2.95;;;;;;;3.19;74.20;100560.69;5090163;28;20730;-77
2024/01/27 02:21:55;;;;;;;7.40;3.13;;;;;;;3.22;73.82;100539.25;5090460;28;20473;-77
2024/01/27 02:24:20;;;;;;;8.30;3.53;;;;;;;3.10;75.05;100553.69;5081105;28;20064;-78
2024/01/27 02:26:46;;;;;;;8.45;3.70;;;;;;;3.01;74.03;100530.94;5071959;28;20048;-77
2024/01/27 02:29:11;;;;;;;7.50;3.35;;;;;;;3.18;73.61;100543.19;5070437;28;20063;-78
2024/01/27 02:31:37;;;;;;;6.85;3.60;;;;;;;3.12;73.42;100516.66;5069941;28;20131;-78
2024/01/27 02:34:02;;;;;;;7.38;3.63;;;;;;;3.35;74.02;100551.16;5070062;28;20024;-78
2024/01/27 02:36:28;;;;;;;7.82;3.92;;;;;;;2.67;75.41;100542.28;5070556;28;20025;-78
2024/01/27 02:38:53;;;;;;;11.13;4.45;;;;;;;2.67;76.73;100547.56;5071408;28;20029;-78
2024/01/27 02:41:18;;;;;;;8.05;3.97;;;;;;;2.59;77.81;100573.84;5069210;28;20088;-78
2024/01/27 02:43:44;;;;;;;9.90;3.97;;;;;;;2.39;78.74;100570.56;5069623;28;20045;-78
2024/01/27 02:46:13;;;;;;;7.43;3.60;;;;;;;2.22;80.24;100580.13;5051976;28;20472;-78
2024/01/27 02:48:42;;;;;;;8.50;3.58;;;;;;;2.32;79.56;100604.56;5055064;28;20101;-77
2024/01/27 02:51:08;;;;;;;7.97;3.63;;;;;;;2.06;80.82;100607.13;5069903;28;20039;-79
2024/01/27 02:53:34;;;;;;;7.38;3.70;;;;;;;2.23;79.09;100576.53;5068913;28;20420;-78
2024/01/27 02:55:59;;;;;;;46.67;20.25;;;;;;;2.30;78.23;100574.13;5069388;28;20036;-78
2024/01/27 02:58:24;;;;;;;107.03;41.20;;;;;;;2.12;77.50;100564.44;5080440;28;20035;-78
2024/01/27 03:00:50;;;;;;;73.30;31.40;;;;;;;2.49;77.42;100576.56;5071001;28;20051;-78
2024/01/27 03:03:15;;;;;;;31.88;12.30;;;;;;;2.18;78.41;100544.59;5071193;28;20020;-78
2024/01/27 03:05:41;;;;;;;14.55;6.50;;;;;;;2.29;78.44;100557.50;5070849;28;20032;-77
2024/01/27 03:08:07;;;;;;;12.13;5.57;;;;;;;2.60;77.84;100571.06;5081515;28;20032;-77
2024/01/27 03:10:32;;;;;;;11.43;4.95;;;;;;;2.13;80.26;100573.16;5068509;28;20055;-78
2024/01/27 03:12:58;;;;;;;13.38;4.78;;;;;;;2.12;81.17;100560.97;5068596;28;20078;-77
2024/01/27 03:15:23;;;;;;;8.27;4.45;;;;;;;1.86;81.89;100551.22;5068894;28;20044;-79
2024/01/27 03:17:48;;;;;;;10.90;5.25;;;;;;;1.88;82.64;100559.78;5070878;28;20032;-78
2024/01/27 03:20:14;;;;;;;30.35;12.85;;;;;;;1.72;83.79;100564.91;5050560;28;20106;-77
2024/01/27 03:22:42;;;;;;;21.52;8.38;;;;;;;1.95;82.42;100560.00;5068326;28;20103;-79
2024/01/27 03:25:09;;;;;;;;;;;;;;;2.20;81.54;100558.41;5069514;28;20100;-78
2024/01/27 03:27:35;;;;;;;16.70;6.50;;;;;;;2.19;80.57;100541.81;5052492;28;19917;-78
2024/01/27 03:30:03;;;;;;;11.95;6.40;;;;;;;2.24;80.81;100549.22;5088292;28;20100;-77
2024/01/27 03:32:31;;;;;;;;;;;;;;;2.48;79.35;100550.41;5088612;28;20030;-79
2024/01/27 03:34:57;;;;;;;18.17;6.82;;;;;;;2.40;79.57;100544.09;5063477;28;19924;-78
2024/01/27 03:37:23;;;;;;;14.02;6.10;;;;;;;2.59;79.02;100537.78;5049985;28;20449;-77
2024/01/27 03:39:48;;;;;;;28.02;12.88;;;;;;;2.22;81.42;100519.63;5087812;28;20552;-78
2024/01/27 03:42:14;;;;;;;15.18;7.35;;;;;;;2.16;81.96;100514.97;5070558;28;20088;-78
2024/01/27 03:44:39;;;;;;;12.75;6.45;;;;;;;1.83;82.87;100477.06;5085039;28;20573;-77
2024/01/27 03:47:05;;;;;;;123.60;79.13;;;;;;;2.28;81.34;100540.06;5068916;28;20111;-77
2024/01/27 03:49:30;;;;;;;74.57;46.95;;;;;;;2.34;81.42;100543.88;5070641;28;20098;-77
2024/01/27 03:51:55;;;;;;;53.00;34.00;;;;;;;2.40;81.80;100536.19;5068296;28;20028;-77
2024/01/27 03:54:21;;;;;;;63.00;38.30;;;;;;;2.58;79.94;100551.13;5049753;28;20482;-78
2024/01/27 03:56:46;;;;;;;39.33;23.77;;;;;;;2.50;79.38;100543.19;5049909;28;20033;-78
2024/01/27 03:59:12;;;;;;;29.40;18.05;;;;;;;2.34;79.86;100523.66;5068115;28;20094;-78
2024/01/27 04:01:37;;;;;;;25.40;14.50;;;;;;;2.50;80.34;100533.47;5050800;28;20024;-78
2024/01/27 04:04:03;;;;;;;22.27;11.80;;;;;;;2.53;80.77;100516.53;5068265;28;20096;-77
2024/01/27 04:06:28;;;;;;;23.55;13.73;;;;;;;2.57;79.40;100507.34;5073904;28;20043;-78
2024/01/27 04:08:54;;;;;;;24.92;15.48;;;;;;;2.79;79.75;100538.41;5080983;28;20033;-78
2024/01/27 04:11:22;;;;;;;26.20;14.10;;;;;;;2.60;79.24;100536.00;5048870;28;20022;-77
2024/01/27 04:13:49;;;;;;;31.38;17.48;;;;;;;2.14;81.65;100528.25;5078233;28;20024;-78
2024/01/27 04:16:15;;;;;;;32.38;18.70;;;;;;;1.81;84.09;100522.72;5068655;28;20055;-78
2024/01/27 04:18:42;;;;;;;28.10;14.80;;;;;;;1.83;83.43;100503.34;5082794;28;20025;-78
2024/01/27 04:21:07;;;;;;;28.35;16.73;;;;;;;2.15;83.12;100515.97;5049715;28;20098;-78
2024/01/27 04:23:33;;;;;;;36.22;22.40;;;;;;;2.15;81.79;100497.53;5068271;28;20040;-78
2024/01/27 04:25:59;;;;;;;45.38;27.80;;;;;;;2.26;81.92;100525.41;5068464;28;20103;-79
2024/01/27 04:28:24;;;;;;;25.63;13.73;;;;;;;1.66;85.32;100510.28;5070546;28;20044;-78
2024/01/27 04:30:50;;;;;;;23.35;13.32;;;;;;;1.67;84.46;100510.09;5067972;28;20033;-77
2024/01/27 04:33:15;;;;;;;19.38;10.27;;;;;;;1.77;83.72;100499.53;5068151;28;20447;-77
2024/01/27 04:35:41;;;;;;;19.90;9.43;;;;;;;1.94;83.91;100506.59;5067508;28;20036;-77
2024/01/27 04:38:08;;;;;;;17.30;9.40;;;;;;;2.00;84.65;100500.72;5050014;28;20040;-77
2024/01/27 04:40:35;;;;;;;16.77;8.98;;;;;;;1.95;83.41;100470.59;5068507;28;20429;-78
2024/01/27 04:43:01;;;;;;;18.27;9.52;;;;;;;2.04;84.86;100510.91;5067884;28;20097;-78
2024/01/27 04:45:27;;;;;;;19.20;9.40;;;;;;;1.89;85.71;100495.69;5067729;28;20088;-78
2024/01/27 04:47:53;;;;;;;52.15;30.85;;;;;;;1.97;84.97;100493.13;5067560;28;20025;-78
2024/01/27 04:50:19;;;;;;;41.60;26.65;;;;;;;1.81;87.25;100500.88;5083575;28;20436;-78
2024/01/27 04:52:45;;;;;;;22.42;13.30;;;;;;;1.63;86.90;100450.91;5087885;28;20028;-78
2024/01/27 04:55:11;;;;;;;28.83;15.98;;;;;;;2.03;84.55;100482.97;5087709;28;20035;-78
2024/01/27 04:57:36;;;;;;;23.38;12.95;;;;;;;1.88;85.61;100480.91;5049297;28;20037;-77
2024/01/27 05:00:02;;;;;;;24.30;11.43;;;;;;;2.26;83.90;100504.34;5079646;28;20032;-78
2024/01/27 05:02:27;;;;;;;26.70;13.15;;;;;;;2.15;83.80;100472.03;5088021;28;20453;-78
2024/01/27 05:04:53;;;;;;;33.97;15.48;;;;;;;2.15;83.83;100481.75;5069961;28;20035;-78
2024/01/27 05:07:18;;;;;;;18.92;10.82;;;;;;;1.84;85.21;100473.44;5087412;28;20027;-77
2024/01/27 05:09:43;;;;;;;23.13;12.40;;;;;;;1.96;84.40;100478.34;5086383;28;20103;-78
2024/01/27 05:12:09;;;;;;;20.98;12.73;;;;;;;1.94;84.40;100463.66;5087376;28;20034;-78
2024/01/27 05:14:34;;;;;;;30.65;15.55;;;;;;;1.80;85.99;100478.19;5087859;28;20024;-78
2024/01/27 05:17:00;;;;;;;31.33;15.52;;;;;;;1.92;85.27;100465.63;5073949;28;20074;-77
2024/01/27 05:19:25;;;;;;;39.17;16.77;;;;;;;1.95;86.02;100471.41;5069105;28;20038;-77
2024/01/27 05:21:50;;;;;;;24.88;13.38;;;;;;;1.80;84.72;100425.59;5067635;28;20083;-78
2024/01/27 05:24:16;;;;;;;25.02;13.13;;;;;;;1.91;85.49;100479.75;5070732;28;20028;-78
2024/01/27 05:26:41;;;;;;;14.02;7.50;;;;;;;2.22;82.66;100456.47;5052576;28;20034;-78
2024/01/27 05:29:07;;;;;;;16.90;9.02;;;;;;;2.32;83.46;100477.41;5054941;28;20021;-78
2024/01/27 05:31:33;;;;;;;24.60;11.52;;;;;;;2.36;83.69;100471.69;5070804;28;20143;-79
2024/01/27 05:33:59;;;;;;;17.58;9.95;;;;;;;2.49;83.36;100468.63;5070603;28;20028;-77
2024/01/27 05:36:24;;;;;;;19.27;10.02;;;;;;;2.33;84.96;100479.91;5070292;28;20037;-77
2024/01/27 05:38:50;;;;;;;22.13;12.35;;;;;;;1.99;86.44;100456.16;5070210;28;20393;-77
2024/01/27 05:41:15;;;;;;;31.38;15.48;;;;;;;1.87;88.73;100481.03;5088826;28;20040;-78
2024/01/27 05:43:40;;;;;;;106.35;55.30;;;;;;;1.95;88.39;100466.13;5072386;28;20615;-79
2024/01/27 05:46:09;;;;;;;60.85;34.20;;;;;;;1.92;88.78;100482.25;5088077;28;20039;-78
2024/01/27 05:48:34;;;;;;;48.30;24.52;;;;;;;1.88;90.16;100477.41;5070309;28;20037;-78
2024/01/27 05:51:00;;;;;;;37.80;20.70;;;;;;;1.83;90.76;100483.13;5084948;28;20032;-78
2024/01/27 05:53:26;;;;;;;87.40;49.45;;;;;;;2.15;87.44;100489.66;5072277;28;20028;-78
2024/01/27 05:55:56;;;;;;;31.83;17.95;;;;;;;2.10;85.89;100457.69;5090640;28;20028;-78
2024/01/27 05:58:22;;;;;;;42.88;26.63;;;;;;;2.49;85.61;100491.50;5070589;28;20039;-77
2024/01/27 06:00:48;;;;;;;40.83;25.10;;;;;;;2.52;84.33;100467.50;5081617;28;20032;-79
2024/01/27 06:03:13;;;;;;;35.70;18.17;;;;;;;2.70;83.32;100478.78;5090565;28;20052;-78
2024/01/27 06:05:38;;;;;;;34.40;20.77;;;;;;;2.83;82.75;100488.06;5090036;28;20064;-78
2024/01/27 06:08:05;;;;;;;48.67;35.50;;;;;;;2.77;83.36;100495.59;5089920;28;20032;-78
2024/01/27 06:10:31;;;;;;;42.42;29.92;;;;;;;2.42;84.75;100486.84;5089126;28;20488;-78
2024/01/27 06:12:57;;;;;;;37.80;25.13;;;;;;;2.57;84.42;100495.00;5089685;28;20031;-77
2024/01/27 06:15:22;;;;;;;37.05;24.67;;;;;;;2.72;84.42;100495.25;5089909;28;20796;-77
2024/01/27 06:17:47;;;;;;;45.10;22.35;;;;;;;2.61;84.45;100495.50;5089596;28;20020;-78
2024/01/27 06:20:13;;;;;;;37.45;22.38;;;;;;;2.32;85.71;100480.88;5087059;28;20040;-77
2024/01/27 06:22:39;;;;;;;68.38;35.03;;;;;;;2.40;86.98;100499.34;5069552;28;20500;-79
2024/01/27 06:25:04;;;;;;;75.65;49.90;;;;;;;2.52;85.65;100483.31;5070139;28;20120;-78
2024/01/27 06:27:30;;;;;;;40.70;24.88;;;;;;;2.57;84.83;100504.69;5079251;28;20523;-78
2024/01/27 06:29:55;;;;;;;35.67;19.65;;;;;;;2.94;83.28;100509.69;5070154;28;20029;-78
2024/01/27 06:32:21;;;;;;;30.23;19.52;;;;;;;2.83;84.32;100522.31;5069340;28;20106;-78
2024/01/27 06:34:46;;;;;;;35.30;19.58;;;;;;;2.98;83.00;100511.03;5068665;28;20063;-77
2024/01/27 06:37:11;;;;;;;35.05;21.08;;;;;;;2.99;83.04;100531.09;5069123;28;20044;-78
2024/01/27 06:39:37;;;;;;;60.20;31.85;;;;;;;3.09;82.14;100512.53;5069039;28;20118;-78
2024/01/27 06:42:02;;;;;;;58.90;35.53;;;;;;;2.95;83.29;100499.97;5054229;28;20048;-76
2024/01/27 06:44:28;;;;;;;55.97;30.95;;;;;;;2.89;84.35;100490.06;5051111;28;20094;-78
2024/01/27 06:46:53;;;;;;;48.00;27.02;;;;;;;2.72;86.03;100513.69;5068843;28;20052;-78
2024/01/27 06:49:19;;;;;;;37.28;21.33;;;;;;;2.56;86.46;100518.88;5068905;28;20483;-78
2024/01/27 06:51:46;;;;;;;38.80;22.67;;;;;;;2.64;87.47;100500.47;5063328;28;20032;-78
2024/01/27 06:54:11;;;;;;;32.60;18.60;;;;;;;2.58;88.42;100520.34;5070889;28;20398;-78
2024/01/27 06:56:37;;;;;;;37.20;19.38;;;;;;;2.21;93.61;100504.81;5089612;28;20032;-77
2024/01/27 06:59:02;;;;;;;45.45;23.85;;;;;;;2.30;93.37;100488.09;5088883;28;20654;-78
2024/01/27 07:01:27;;;;;;;48.00;28.35;;;;;;;2.68;93.12;100509.72;5078901;28;20036;-78
2024/01/27 07:03:53;;;;;;;46.42;24.95;;;;;;;2.71;91.22;100504.13;5068462;28;20039;-77
2024/01/27 07:06:19;;;;;;;44.47;23.33;;;;;;;2.51;96.00;100521.94;5050306;28;20029;-79
2024/01/27 07:08:44;;;;;;;41.53;24.17;;;;;;;2.07;100.00;100473.81;5051269;28;20039;-77
2024/01/27 07:11:09;;;;;;;26.75;15.90;;;;;;;2.77;97.66;100508.75;5058822;28;20032;-78
2024/01/27 07:13:35;;;;;;;18.88;10.80;;;;;;;2.49;100.00;100504.66;5089148;28;20074;-78
2024/01/27 07:16:01;;;;;;;22.20;11.80;;;;;;;2.33;100.00;100479.91;5088240;28;20059;-79
2024/01/27 07:18:26;;;;;;;18.60;11.02;;;;;;;2.50;100.00;100482.63;5088226;28;20024;-77
2024/01/27 07:20:52;;;;;;;20.67;10.60;;;;;;;2.52;100.00;100499.09;5087811;28;20750;-78
2024/01/27 07:23:20;;;;;;;14.05;8.48;;;;;;;2.61;100.00;100492.88;5087982;28;20470;-77
2024/01/27 07:25:45;;;;;;;12.73;7.93;;;;;;;2.43;99.32;100469.25;5088370;28;20032;-78
2024/01/27 07:28:11;;;;;;;21.65;12.00;;;;;;;2.53;98.03;100466.50;5079357;28;20041;-78
2024/01/27 07:30:36;;;;;;;21.55;12.23;;;;;;;2.33;100.00;100500.09;5068378;28;20119;-78
2024/01/27 07:33:02;;;;;;;31.35;15.77;;;;;;;2.57;97.12;100491.53;5087024;28;20032;-77
2024/01/27 07:35:28;;;;;;;27.50;13.27;;;;;;;2.92;91.15;100501.13;5088235;28;20027;-78
2024/01/27 07:37:54;;;;;;;30.55;14.85;;;;;;;3.03;91.72;100513.16;5088254;28;20064;-78
2024/01/27 07:40:19;;;;;;;33.60;17.27;;;;;;;3.25;92.51;100505.66;5088613;28;20024;-77
2024/01/27 07:42:44;;;;;;;25.00;13.65;;;;;;;2.85;93.71;100467.66;5071217;28;20402;-78
2024/01/27 07:45:10;;;;;;;28.05;15.30;;;;;;;3.06;97.34;100494.41;5067228;28;20504;-78
2024/01/27 07:47:35;;;;;;;26.63;14.80;;;;;;;3.33;96.00;100508.31;5067463;28;20476;-78
2024/01/27 07:50:01;;;;;;;33.92;20.33;;;;;;;3.30;97.61;100492.84;5049792;28;20060;-78
2024/01/27 07:52:26;;;;;;;35.88;21.65;;;;;;;3.46;100.00;100499.97;5082649;28;20060;-77
2024/01/27 07:54:51;;;;;;;45.65;25.95;;;;;;;3.11;100.00;100468.41;5087676;28;20073;-78
2024/01/27 07:57:17;;;;;;;49.55;29.88;;;;;;;3.05;100.00;100453.22;5087938;28;20118;-78
2024/01/27 07:59:42;;;;;;;48.35;27.88;;;;;;;3.19;100.00;100481.59;5069732;28;20405;-77
2024/01/27 08:02:08;;;;;;;64.88;32.70;;;;;;;3.18;100.00;100456.22;5069962;28;20036;-77
2024/01/27 08:04:34;;;;;;;60.63;38.53;;;;;;;3.26;100.00;100455.41;5049399;28;20028;-78
2024/01/27 08:07:00;;;;;;;62.97;36.00;;;;;;;3.32;100.00;100485.59;5049505;28;20021;-77
2024/01/27 08:09:25;;;;;;;55.47;33.42;;;;;;;3.34;100.00;100473.88;5067679;28;20097;-77
2024/01/27 08:11:53;;;;;;;55.90;34.92;;;;;;;3.04;100.00;100456.03;5055665;28;20024;-78
2024/01/27 08:14:19;;;;;;;60.85;35.63;;;;;;;3.18;100.00;100432.50;5084567;28;20408;-77
2024/01/27 08:16:45;;;;;;;66.15;37.67;;;;;;;3.55;100.00;100433.03;5087765;28;20552;-77
2024/01/27 08:19:10;;;;;;;65.60;38.25;;;;;;;3.59;100.00;100429.09;5069154;28;20028;-77
2024/01/27 08:21:36;;;;;;;72.65;42.78;;;;;;;3.51;100.00;100422.00;5067197;28;20028;-78
2024/01/27 08:24:01;;;;;;;85.82;46.38;;;;;;;3.63;100.00;100420.69;5087991;28;20097;-78
2024/01/27 08:26:26;;;;;;;107.00;50.17;;;;;;;3.55;100.00;100407.50;5075838;28;20108;-78
2024/01/27 08:28:54;;;;;;;90.45;43.15;;;;;;;10.84;70.61;100440.63;5067594;28;20047;-77
2024/01/27 08:31:19;;;;;;;138.20;55.00;;;;;;;12.93;59.71;100431.53;5067020;28;20071;-77
2024/01/27 08:33:45;;;;;;;112.00;49.97;;;;;;;12.27;59.75;100419.75;5068439;28;20135;-78
2024/01/27 08:36:16;;;;;;;78.88;40.47;;;;;;;13.53;53.48;100454.06;5067508;28;20028;-75
2024/01/27 08:38:41;;;;;;;78.82;44.92;;;;;;;13.09;53.29;100440.81;5067126;28;20033;-76
2024/01/27 08:41:07;;;;;;;54.17;30.83;;;;;;;12.64;53.76;100423.25;5067185;28;20031;-75
2024/01/27 08:43:33;;;;;;;128.73;85.60;;;;;;;11.63;59.26;100433.22;5086634;28;20032;-77
2024/01/27 08:46:00;;;;;;;64.72;42.55;;;;;;;9.04;64.65;100414.03;5087152;28;20040;-76
2024/01/27 08:48:25;;;;;;;57.20;45.35;;;;;;;7.35;72.95;100418.63;5084713;28;20043;-75
2024/01/27 08:50:51;;;;;;;46.80;35.60;;;;;;;7.34;77.16;100427.63;5048667;28;20125;-76
2024/01/27 08:53:16;;;;;;;45.00;31.85;;;;;;;6.98;79.84;100433.75;5071587;28;20033;-76
2024/01/27 08:55:42;;;;;;;35.83;23.48;;;;;;;6.56;81.64;100424.63;5072380;28;20036;-77
2024/01/27 08:58:08;;;;;;;61.42;51.95;;;;;;;6.40;82.39;100421.19;5053279;28;20025;-77
2024/01/27 09:00:33;;;;;;;41.33;26.55;;;;;;;6.26;83.41;100440.56;5071491;28;20123;-77
2024/01/27 09:02:59;;;;;;;39.97;23.48;;;;;;;6.30;85.89;100439.19;5073931;28;20031;-78
2024/01/27 09:05:24;;;;;;;40.13;23.33;;;;;;;6.44;83.23;100448.97;5070934;28;20029;-77
2024/01/27 09:07:49;;;;;;;51.65;26.00;;;;;;;6.46;86.49;100442.66;5070672;28;20027;-77
2024/01/27 09:10:15;;;;;;;33.90;20.77;;;;;;;6.46;85.82;100434.69;5070580;28;20028;-77
2024/01/27 09:12:41;;;;;;;27.23;17.67;;;;;;;6.55;85.83;100454.81;5073358;28;20024;-78
2024/01/27 09:15:07;;;;;;;27.98;16.90;;;;;;;6.70;80.11;100463.59;5070486;28;20028;-77
2024/01/27 09:17:32;;;;;;;31.40;19.67;;;;;;;6.65;81.08;100471.25;5070722;28;20025;-78
2024/01/27 09:19:58;;;;;;;30.08;17.67;;;;;;;6.39;82.20;100435.44;5071563;28;20036;-78
2024/01/27 09:22:23;;;;;;;29.58;17.92;;;;;;;6.51;81.48;100443.75;5073433;28;20024;-76
2024/01/27 09:24:49;;;;;;;164.98;73.72;;;;;;;6.66;83.26;100459.66;5070723;28;20394;-76
2024/01/27 09:27:14;;;;;;;57.92;30.77;;;;;;;6.68;82.68;100449.72;5070649;28;20067;-76
2024/01/27 09:29:39;;;;;;;33.92;18.85;;;;;;;6.69;82.24;100453.16;5078224;28;20023;-77
2024/01/27 09:32:07;;;;;;;28.45;16.90;;;;;;;6.70;81.50;100463.59;5070585;28;20106;-77
2024/01/27 09:34:33;;;;;;;27.05;16.17;;;;;;;6.49;83.46;100455.53;5071367;28;20485;-77
2024/01/27 09:36:58;;;;;;;32.83;17.80;;;;;;;6.76;80.79;100468.16;5070298;28;20032;-76
2024/01/27 09:39:23;;;;;;;28.25;18.77;;;;;;;6.73;81.22;100447.31;5052188;28;20116;-78
2024/01/27 09:41:50;;;;;;;25.80;17.63;;;;;;;6.95;80.75;100436.78;5069859;28;20035;-77
2024/01/27 09:44:18;;;;;;;22.70;14.00;;;;;;;7.06;81.82;100452.19;5072265;28;20033;-78
2024/01/27 09:46:45;;;;;;;17.20;10.27;;;;;;;7.03;82.48;100434.84;5052236;28;20028;-77
2024/01/27 09:49:13;;;;;;;13.63;8.35;;;;;;;7.09;81.38;100408.56;5070136;28;20105;-77
2024/01/27 09:51:38;;;;;;;19.05;12.48;;;;;;;7.42;79.35;100423.00;5069856;28;20028;-78
2024/01/27 09:54:04;;;;;;;41.25;26.02;;;;;;;7.43;80.25;100429.13;5072421;28;20065;-76
2024/01/27 09:56:31;;;;;;;15.07;10.43;;;;;;;7.40;80.24;100426.88;5069820;28;20036;-77
2024/01/27 09:58:57;;;;;;;26.83;16.23;;;;;;;7.30;82.26;100383.91;5069853;28;20048;-78
2024/01/27 10:01:25;;;;;;;12.73;6.28;;;;;;;7.51;81.18;100415.72;5069549;28;20067;-77
2024/01/27 10:03:51;;;;;;;24.95;12.68;;;;;;;7.66;79.35;100378.47;5054118;28;20127;-78
2024/01/27 10:06:17;;;;;;;15.57;9.02;;;;;;;7.92;74.94;100401.78;5069926;28;20077;-76
2024/01/27 10:08:51;;;;;;;23.70;11.75;;;;;;;8.01;69.89;100387.34;5068740;28;20090;-77
2024/01/27 10:11:20;;;;;;;38.72;18.25;;;;;;;8.21;68.88;100386.63;5069474;28;20099;-76
2024/01/27 10:13:45;;;;;;;26.58;12.48;;;;;;;8.31;67.54;100381.78;5073294;28;20043;-76
2024/01/27 10:16:12;;;;;;;43.90;19.20;;;;;;;8.44;68.21;100397.84;5069635;28;20182;-77
2024/01/27 10:18:37;;;;;;;29.60;14.50;;;;;;;8.44;67.31;100360.63;5069514;28;20082;-77
2024/01/27 10:21:20;;;;;;;24.95;13.02;;;;;;;8.56;66.12;100352.94;5069196;28;20036;-76
2024/01/27 10:23:45;;;;;;;16.05;9.25;;;;;;;8.92;66.46;100383.72;5078700;28;20027;-77
2024/01/27 10:26:11;;;;;;;23.13;12.38;;;;;;;8.97;66.09;100381.28;5089838;28;20032;-77
2024/01/27 10:28:36;;;;;;;18.65;9.05;;;;;;;8.90;66.05;100374.31;5089403;28;20028;-76
2024/01/27 10:31:12;;;;;;;11.73;6.43;;;;;;;8.95;65.92;100383.34;5076335;28;20028;-76
2024/01/27 10:33:38;;;;;;;11.45;5.65;;;;;;;9.15;64.67;100362.06;5076724;28;20039;-76
2024/01/27 10:36:04;;;;;;;5.40;3.40;;;;;;;9.91;63.67;100376.88;5089438;28;20024;-76
2024/01/27 10:38:39;;;;;;;5.75;3.53;;;;;;;9.81;61.67;100366.63;5089676;28;20647;-77
2024/01/27 10:41:10;;;;;;;6.30;3.10;;;;;;;10.27;60.65;100362.22;5088263;28;20039;-77
2024/01/27 10:43:36;;;;;;;5.70;3.22;;;;;;;10.62;60.50;100372.59;5081796;28;20024;-76
2024/01/27 10:46:07;;;;;;;5.55;3.08;;;;;;;10.88;57.66;100378.84;5069329;28;20030;-77
2024/01/27 10:48:36;;;;;;;4.78;2.90;;;;;;;11.10;57.43;100390.84;5069716;28;20765;-77
2024/01/27 10:51:10;;;;;;;4.53;2.30;;;;;;;11.19;55.07;100370.03;5080228;28;20028;-77
2024/01/27 10:53:37;;;;;;;5.60;2.53;;;;;;;11.08;54.02;100373.41;5090022;28;20073;-77
2024/01/27 10:56:08;;;;;;;4.20;2.55;;;;;;;11.17;54.50;100399.63;5090729;28;20024;-77
2024/01/27 10:58:40;;;;;;;4.72;2.10;;;;;;;10.86;53.55;100358.53;5073138;28;20031;-77
2024/01/27 11:01:09;;;;;;;4.30;2.20;;;;;;;11.32;52.13;100387.81;5090588;28;20504;-76
2024/01/27 11:03:38;;;;;;;4.03;2.00;;;;;;;10.86;52.97;100395.88;5089688;28;20073;-75
2024/01/27 11:06:06;;;;;;;5.03;3.00;;;;;;;10.33;53.94;100381.94;5071261;28;20093;-76
2024/01/27 11:08:33;;;;;;;6.32;4.43;;;;;;;10.13;56.66;100377.44;5071198;28;20032;-76
2024/01/27 11:10:59;;;;;;;3.58;1.88;;;;;;;10.19;55.10;100384.59;5078047;28;20131;-76
2024/01/27 11:13:27;;;;;;;4.38;2.60;;;;;;;10.34;55.78;100371.06;5063009;28;20456;-77
2024/01/27 11:15:53;;;;;;;4.10;2.28;;;;;;;10.67;53.67;100399.47;5100378;28;20048;-77